Time;durP1;ratioP1;P1;durP2;ratioP2;P2;SDS_P1;SDS_P2;PMS_P1;PMS_P2;Temp;Humidity;BMP_temperature;BMP_pressure;BME280_temperature;BME280_humidity;BME280_pressure;Samples;Min_cycle;Max_cycle;Signal;HPM_P1;HPM_P2
2022/04/23 00:02:03;;;;;;;7.68;6.03;;;11.10;99.90;;;;;;5120124;27;20059;-70
2022/04/23 00:04:30;;;;;;;6.35;4.75;;;11.10;99.90;;;;;;5114399;27;20027;-69
2022/04/23 00:06:59;;;;;;;9.63;6.03;;;11.10;99.90;;;;;;5112624;27;20158;-70
2022/04/23 00:09:25;;;;;;;12.68;6.68;;;11.10;99.90;;;;;;5122023;27;20039;-69
2022/04/23 00:11:55;;;;;;;13.65;6.85;;;11.00;99.90;;;;;;5106227;27;20031;-70
2022/04/23 00:14:25;;;;;;;8.45;6.53;;;11.00;99.90;;;;;;5106416;28;20023;-71
2022/04/23 00:16:51;;;;;;;11.00;7.45;;;11.00;99.90;;;;;;5134558;27;20073;-69
2022/04/23 00:19:18;;;;;;;8.80;7.20;;;11.00;99.90;;;;;;5121387;27;20255;-69
2022/04/23 00:21:44;;;;;;;11.23;7.40;;;11.00;99.90;;;;;;5110729;28;20094;-70
2022/04/23 00:24:10;;;;;;;11.15;7.40;;;11.00;99.90;;;;;;5122523;27;20077;-69
2022/04/23 00:26:35;;;;;;;8.95;6.72;;;11.00;99.90;;;;;;5124053;27;20272;-70
2022/04/23 00:29:01;;;;;;;10.45;7.93;;;11.00;99.90;;;;;;5122143;27;20032;-71
2022/04/23 00:31:27;;;;;;;10.88;7.35;;;11.00;99.90;;;;;;5120510;28;20076;-70
2022/04/23 00:33:53;;;;;;;10.65;7.40;;;11.00;99.90;;;;;;5105637;28;20031;-70
2022/04/23 00:36:21;;;;;;;11.05;7.68;;;11.00;99.90;;;;;;5143771;27;20106;-70
2022/04/23 00:38:49;;;;;;;9.10;7.13;;;11.10;99.90;;;;;;5120146;28;20027;-70
2022/04/23 00:44:01;;;;;;;10.35;7.35;;;11.00;99.90;;;;;;5119675;27;20039;-70
2022/04/23 00:46:29;;;;;;;10.98;7.88;;;11.10;99.90;;;;;;5121498;27;20031;-69
2022/04/23 00:48:55;;;;;;;13.25;8.65;;;11.00;99.90;;;;;;5105153;27;20049;-70
2022/04/23 00:51:21;;;;;;;11.57;7.22;;;11.00;99.90;;;;;;5110753;27;20027;-70
2022/04/23 00:53:52;;;;;;;14.77;8.60;;;11.00;99.90;;;;;;5105366;27;20382;-70
2022/04/23 00:56:18;;;;;;;13.38;7.97;;;11.00;99.90;;;;;;5130788;27;20128;-70
2022/04/23 00:58:46;;;;;;;11.55;8.15;;;11.00;99.90;;;;;;5112626;27;20095;-71
2022/04/23 01:01:15;;;;;;;10.15;8.50;;;11.00;99.90;;;;;;5094405;28;20218;-69
2022/04/23 01:03:42;;;;;;;11.05;8.30;;;11.00;99.90;;;;;;5136727;27;20023;-69
2022/04/23 01:06:10;;;;;;;13.70;9.32;;;11.00;99.90;;;;;;5112160;28;20195;-69
2022/04/23 01:08:37;;;;;;;10.43;8.95;;;11.00;99.90;;;;;;5105296;28;20051;-70
2022/04/23 01:11:04;;;;;;;12.60;8.43;;;11.00;99.90;;;;;;5095214;28;20031;-69
2022/04/23 01:13:29;;;;;;;11.25;8.50;;;10.90;99.90;;;;;;5128585;27;20023;-69
2022/04/23 01:16:01;;;;;;;11.75;7.90;;;10.90;99.90;;;;;;5109836;27;20034;-69
2022/04/23 01:18:27;;;;;;;13.55;9.02;;;10.80;99.90;;;;;;5132486;27;20067;-68
2022/04/23 01:21:01;;;;;;;9.98;8.60;;;10.80;99.90;;;;;;5126417;27;20054;-69
2022/04/23 01:23:29;;;;;;;16.13;10.10;;;10.80;99.90;;;;;;5122326;27;20073;-69
2022/04/23 01:25:55;;;;;;;13.60;8.52;;;10.80;99.90;;;;;;5104217;28;20042;-69
2022/04/23 01:28:22;;;;;;;11.88;8.63;;;10.80;99.90;;;;;;5105588;28;20040;-71
2022/04/23 01:30:52;;;;;;;11.88;8.90;;;10.80;99.90;;;;;;5105057;28;20039;-71
2022/04/23 01:33:36;;;;;;;14.55;9.55;;;10.80;99.90;;;;;;5114592;27;20039;-70
2022/04/23 01:36:03;;;;;;;13.38;9.27;;;11.00;99.90;;;;;;5127562;27;20035;-71
2022/04/23 01:38:29;;;;;;;15.45;10.60;;;10.70;99.90;;;;;;5121059;28;20072;-70
2022/04/23 01:40:55;;;;;;;13.55;9.05;;;10.70;99.90;;;;;;5123799;27;20034;-70
2022/04/23 01:43:21;;;;;;;10.25;7.88;;;10.80;99.90;;;;;;5105540;27;20039;-70
2022/04/23 01:45:47;;;;;;;12.15;8.85;;;10.80;99.90;;;;;;5122030;27;20312;-70
2022/04/23 01:48:12;;;;;;;13.25;9.98;;;10.70;99.90;;;;;;5112459;28;20032;-69
2022/04/23 01:50:38;;;;;;;14.00;9.60;;;10.70;99.90;;;;;;5088481;28;20322;-69
2022/04/23 01:53:05;;;;;;;10.38;7.93;;;10.80;99.90;;;;;;5111270;27;20532;-70
2022/04/23 01:55:33;;;;;;;12.52;9.93;;;10.70;99.90;;;;;;5142514;27;20296;-70
2022/04/23 01:57:59;;;;;;;12.85;9.38;;;10.70;99.90;;;;;;5137664;27;20031;-69
2022/04/23 02:00:31;;;;;;;12.55;9.77;;;10.60;99.90;;;;;;5118626;28;20318;-69
2022/04/23 02:02:57;;;;;;;12.68;9.95;;;10.60;99.90;;;;;;5117754;27;20206;-70
2022/04/23 02:05:23;;;;;;;13.60;9.55;;;10.60;99.90;;;;;;5125107;27;20267;-69
2022/04/23 02:07:49;;;;;;;13.63;10.18;;;10.60;99.90;;;;;;5137762;27;20073;-69
2022/04/23 02:10:15;;;;;;;12.02;9.57;;;10.60;99.90;;;;;;5123546;27;20031;-69
2022/04/23 02:12:42;;;;;;;10.90;8.32;;;10.60;99.90;;;;;;5120842;27;20051;-70
2022/04/23 02:15:13;;;;;;;10.95;9.65;;;10.60;99.90;;;;;;5122817;27;20037;-70
2022/04/23 02:17:44;;;;;;;15.85;9.05;;;10.60;99.90;;;;;;5112927;27;20054;-69
2022/04/23 02:20:15;;;;;;;11.90;8.77;;;10.60;99.90;;;;;;5117609;27;20035;-69
2022/04/23 02:22:42;;;;;;;14.48;9.77;;;10.50;99.90;;;;;;5125196;27;20023;-69
2022/04/23 02:25:09;;;;;;;12.02;8.80;;;10.60;99.90;;;;;;5097556;27;20031;-69
2022/04/23 02:27:42;;;;;;;11.80;9.90;;;10.60;99.90;;;;;;5109910;27;20229;-69
2022/04/23 02:30:09;;;;;;;17.58;10.43;;;10.50;99.90;;;;;;5120008;27;20056;-70
2022/04/23 02:32:34;;;;;;;13.57;9.68;;;10.60;99.90;;;;;;5121291;28;20055;-69
2022/04/23 02:35:00;;;;;;;13.88;9.02;;;10.50;99.90;;;;;;5087056;28;20028;-70
2022/04/23 02:37:27;;;;;;;11.60;8.63;;;10.70;99.90;;;;;;5125447;27;20144;-69
2022/04/23 02:39:53;;;;;;;12.65;8.82;;;10.50;99.90;;;;;;5109995;27;20051;-70
2022/04/23 02:42:19;;;;;;;12.07;9.35;;;10.60;99.90;;;;;;5120695;27;20031;-69
2022/04/23 02:44:45;;;;;;;14.00;10.30;;;10.60;99.90;;;;;;5104284;28;20035;-70
2022/04/23 02:47:11;;;;;;;15.98;10.15;;;10.60;99.90;;;;;;5119702;28;20039;-70
2022/04/23 02:49:37;;;;;;;11.13;9.05;;;10.60;99.90;;;;;;5115654;27;20110;-69
2022/04/23 02:52:03;;;;;;;12.55;9.13;;;10.50;99.90;;;;;;5099341;28;20031;-70
2022/04/23 02:54:28;;;;;;;11.57;9.45;;;10.60;99.90;;;;;;5087242;28;20042;-69
2022/04/23 02:56:55;;;;;;;10.80;9.63;;;10.50;99.90;;;;;;5120740;28;20023;-71
2022/04/23 02:59:21;;;;;;;14.68;9.90;;;10.60;99.90;;;;;;5133540;27;20068;-69
2022/04/23 03:01:47;;;;;;;12.25;8.50;;;10.60;99.90;;;;;;5115392;27;20315;-70
2022/04/23 03:04:15;;;;;;;13.07;9.90;;;10.60;99.90;;;;;;5130731;27;20143;-69
2022/04/23 03:06:41;;;;;;;13.13;9.80;;;10.50;99.90;;;;;;5121583;27;20058;-70
2022/04/23 03:09:06;;;;;;;16.02;9.55;;;10.50;99.90;;;;;;5114164;27;20349;-70
2022/04/23 03:11:32;;;;;;;11.38;8.98;;;10.50;99.90;;;;;;5135499;27;20031;-70
2022/04/23 03:13:58;;;;;;;11.25;9.65;;;10.50;99.90;;;;;;5140526;27;20031;-69
2022/04/23 03:16:26;;;;;;;10.75;9.05;;;10.50;99.90;;;;;;5126425;27;20045;-70
2022/04/23 03:18:58;;;;;;;12.48;9.75;;;10.40;99.90;;;;;;5123770;27;20066;-69
2022/04/23 03:21:24;;;;;;;11.88;9.32;;;10.40;99.90;;;;;;5107398;27;20023;-70
2022/04/23 03:23:58;;;;;;;13.30;9.63;;;10.40;99.90;;;;;;5105928;28;20043;-69
2022/04/23 03:29:21;;;;;;;12.80;9.65;;;10.40;99.90;;;;;;5115577;28;20046;-69
2022/04/23 03:31:50;;;;;;;11.60;9.23;;;10.30;99.90;;;;;;5106845;28;20114;-70
2022/04/23 03:34:17;;;;;;;10.63;9.52;;;10.30;99.90;;;;;;5135970;28;20038;-70
2022/04/23 03:36:44;;;;;;;12.00;8.88;;;10.30;99.90;;;;;;5115950;28;20038;-69
2022/04/23 03:39:09;;;;;;;12.98;9.30;;;10.30;99.90;;;;;;5131061;28;20049;-69
2022/04/23 03:41:35;;;;;;;11.80;8.70;;;10.30;99.90;;;;;;5140946;28;20035;-69
2022/04/23 03:44:01;;;;;;;11.93;9.68;;;10.20;99.90;;;;;;5117336;28;20020;-70
2022/04/23 03:46:26;;;;;;;10.80;9.05;;;10.20;99.90;;;;;;5134908;28;20031;-69
2022/04/23 03:48:52;;;;;;;11.13;9.90;;;10.10;99.90;;;;;;5104137;28;20028;-70
2022/04/23 03:51:18;;;;;;;10.48;9.07;;;10.10;99.90;;;;;;5153138;27;20099;-69
2022/04/23 03:53:44;;;;;;;10.98;8.85;;;10.10;99.90;;;;;;5102357;28;20046;-70
2022/04/23 03:56:09;;;;;;;11.85;9.25;;;10.00;99.90;;;;;;5136915;28;20037;-69
2022/04/23 03:58:35;;;;;;;11.27;9.50;;;9.90;99.90;;;;;;5100746;28;20031;-69
2022/04/23 04:01:01;;;;;;;11.13;9.50;;;10.00;99.90;;;;;;5119842;28;20057;-69
2022/04/23 04:03:27;;;;;;;11.90;9.10;;;10.00;99.90;;;;;;5104351;28;20306;-69
2022/04/23 04:05:53;;;;;;;11.43;9.68;;;10.00;99.90;;;;;;5101294;28;20054;-70
2022/04/23 04:08:20;;;;;;;11.60;9.88;;;10.00;99.90;;;;;;5110771;28;20043;-70
2022/04/23 04:10:45;;;;;;;11.23;9.70;;;9.90;99.90;;;;;;5086648;28;20240;-70
2022/04/23 04:13:14;;;;;;;15.88;9.57;;;9.90;99.90;;;;;;5102301;28;20039;-70
2022/04/23 04:15:43;;;;;;;12.82;10.60;;;9.80;99.90;;;;;;5118220;28;20040;-70
2022/04/23 04:18:11;;;;;;;10.55;9.18;;;9.90;99.90;;;;;;5098805;28;20027;-70
2022/04/23 04:20:37;;;;;;;14.35;10.02;;;9.90;99.90;;;;;;5119755;28;20027;-70
2022/04/23 04:23:02;;;;;;;11.43;10.10;;;9.80;99.90;;;;;;5121411;27;20059;-69
2022/04/23 04:25:31;;;;;;;11.65;10.27;;;9.80;99.90;;;;;;5127018;27;20457;-69
2022/04/23 04:27:59;;;;;;;12.73;10.10;;;9.80;99.90;;;;;;5124234;27;20035;-69
2022/04/23 04:30:25;;;;;;;14.30;10.25;;;9.80;99.90;;;;;;5112819;28;20333;-69
2022/04/23 04:32:51;;;;;;;11.70;10.18;;;9.70;99.90;;;;;;5105810;27;20113;-70
2022/04/23 04:35:17;;;;;;;12.63;8.98;;;9.70;99.90;;;;;;5110058;28;20039;-70
2022/04/23 04:37:44;;;;;;;10.73;9.10;;;9.80;99.90;;;;;;5109956;27;20019;-70
2022/04/23 04:40:10;;;;;;;12.90;9.77;;;9.70;99.90;;;;;;5126771;27;20263;-69
2022/04/23 04:42:36;;;;;;;12.32;9.23;;;9.70;99.90;;;;;;5143873;27;20027;-69
2022/04/23 04:45:03;;;;;;;12.38;10.27;;;9.70;99.90;;;;;;5126477;27;20031;-70
2022/04/23 04:47:29;;;;;;;11.98;10.10;;;9.70;99.90;;;;;;5125830;27;20042;-69
2022/04/23 04:49:55;;;;;;;12.23;10.27;;;9.70;99.90;;;;;;5139947;27;20035;-70
2022/04/23 04:52:20;;;;;;;11.48;9.38;;;9.70;99.90;;;;;;5105525;28;20093;-70
2022/04/23 04:54:46;;;;;;;12.20;10.90;;;9.70;99.90;;;;;;5139364;27;20023;-70
2022/04/23 04:57:12;;;;;;;11.35;10.15;;;9.70;99.90;;;;;;5105973;28;20043;-70
2022/04/23 04:59:39;;;;;;;11.10;9.48;;;9.70;99.90;;;;;;5099421;28;20036;-70
2022/04/23 05:02:05;;;;;;;12.38;10.40;;;9.70;99.90;;;;;;5122577;28;20120;-70
2022/04/23 05:04:31;;;;;;;13.65;10.10;;;9.70;99.90;;;;;;5104658;27;20046;-70
2022/04/23 05:06:57;;;;;;;10.80;8.48;;;9.70;99.90;;;;;;5123739;27;20054;-70
2022/04/23 05:09:23;;;;;;;13.32;9.45;;;9.70;99.90;;;;;;5142739;27;20042;-70
2022/04/23 05:11:49;;;;;;;11.07;9.27;;;9.70;99.90;;;;;;5143757;27;20031;-69
2022/04/23 05:14:16;;;;;;;12.98;9.57;;;9.70;99.90;;;;;;5142882;27;20046;-69
2022/04/23 05:16:43;;;;;;;10.38;8.07;;;9.70;99.90;;;;;;5125957;27;20287;-69
2022/04/23 05:19:09;;;;;;;15.10;10.38;;;9.70;99.90;;;;;;5122782;27;20186;-69
2022/04/23 05:21:35;;;;;;;10.80;7.97;;;9.70;99.90;;;;;;5139743;27;20043;-70
2022/04/23 05:24:01;;;;;;;12.93;9.63;;;9.70;99.90;;;;;;5138678;27;20028;-69
2022/04/23 05:26:26;;;;;;;10.60;8.63;;;9.80;99.90;;;;;;5123968;27;20072;-69
2022/04/23 05:28:52;;;;;;;10.38;8.80;;;9.70;99.90;;;;;;5122820;27;20039;-69
2022/04/23 05:31:18;;;;;;;10.68;8.23;;;9.70;99.90;;;;;;5111303;28;20035;-69
2022/04/23 05:33:43;;;;;;;10.77;8.82;;;9.80;99.90;;;;;;5122229;27;20329;-68
2022/04/23 05:36:09;;;;;;;11.93;9.20;;;9.70;99.90;;;;;;5114680;27;20312;-69
2022/04/23 05:38:35;;;;;;;10.93;8.65;;;9.80;99.90;;;;;;5119267;27;20071;-70
2022/04/23 05:41:01;;;;;;;10.98;7.40;;;9.80;99.90;;;;;;5134635;27;20053;-69
2022/04/23 05:43:27;;;;;;;9.70;8.50;;;9.90;99.90;;;;;;5140178;27;20059;-69
2022/04/23 05:45:57;;;;;;;12.15;8.18;;;9.90;99.90;;;;;;5142505;27;20023;-69
2022/04/23 05:48:23;;;;;;;10.50;8.88;;;9.90;99.90;;;;;;5126975;27;20312;-70
2022/04/23 05:50:48;;;;;;;11.60;9.18;;;10.00;99.90;;;;;;5126423;27;20257;-70
2022/04/23 05:53:14;;;;;;;10.88;8.77;;;9.90;99.90;;;;;;5125511;27;20099;-70
2022/04/23 05:55:40;;;;;;;10.43;8.90;;;10.00;99.90;;;;;;5126455;27;20039;-70
2022/04/23 05:58:05;;;;;;;7.35;5.97;;;10.00;99.90;;;;;;5121611;28;20040;-70
2022/04/23 06:00:31;;;;;;;11.82;9.50;;;10.00;99.90;;;;;;5109544;27;20027;-70
2022/04/23 06:02:57;;;;;;;12.05;8.52;;;10.00;99.90;;;;;;5126552;27;20367;-70
2022/04/23 06:05:23;;;;;;;13.07;8.77;;;10.10;99.90;;;;;;5124972;27;20073;-69
2022/04/23 06:07:49;;;;;;;8.95;7.47;;;10.10;99.90;;;;;;5127743;27;20052;-70
2022/04/23 06:10:14;;;;;;;9.57;8.13;;;10.10;99.90;;;;;;5122426;28;20054;-71
2022/04/23 06:12:40;;;;;;;9.60;7.95;;;10.10;99.90;;;;;;5124593;27;20392;-70
2022/04/23 06:15:06;;;;;;;8.82;6.82;;;10.20;99.90;;;;;;5125806;27;20031;-70
2022/04/23 06:17:32;;;;;;;8.48;6.60;;;10.30;99.90;;;;;;5115700;28;20039;-70
2022/04/23 06:20:00;;;;;;;11.15;8.85;;;10.30;99.90;;;;;;5122622;28;20222;-70
2022/04/23 06:22:25;;;;;;;9.70;7.88;;;10.40;99.90;;;;;;5133015;27;20183;-70
2022/04/23 06:24:52;;;;;;;11.75;8.93;;;10.30;99.90;;;;;;5137257;27;20042;-70
2022/04/23 06:27:18;;;;;;;10.25;7.95;;;10.40;99.90;;;;;;5134270;27;20034;-70
2022/04/23 06:29:44;;;;;;;8.10;7.25;;;10.50;99.90;;;;;;5120100;27;20516;-71
2022/04/23 06:32:10;;;;;;;11.52;7.75;;;10.50;99.90;;;;;;5116839;27;20567;-71
2022/04/23 06:34:39;;;;;;;8.75;6.80;;;10.60;99.90;;;;;;5119721;27;20043;-71
2022/04/23 06:37:06;;;;;;;11.25;8.13;;;10.60;99.90;;;;;;5098090;27;20253;-71
2022/04/23 06:39:32;;;;;;;9.85;7.88;;;10.70;99.90;;;;;;5118850;27;20035;-71
2022/04/23 06:41:58;;;;;;;9.23;6.75;;;10.90;99.90;;;;;;5137471;27;20073;-71
2022/04/23 06:44:24;;;;;;;9.00;7.03;;;10.90;99.90;;;;;;5139617;27;20039;-71
2022/04/23 06:46:49;;;;;;;13.10;9.65;;;11.00;99.90;;;;;;5136632;27;20254;-70
2022/04/23 06:49:15;;;;;;;11.10;8.90;;;11.20;99.90;;;;;;5119194;27;20291;-70
2022/04/23 06:51:41;;;;;;;11.48;8.75;;;11.20;99.90;;;;;;5130838;27;20046;-70
2022/04/23 06:54:08;;;;;;;9.70;6.63;;;11.30;99.90;;;;;;5139348;27;20066;-70
2022/04/23 06:56:34;;;;;;;8.23;6.50;;;11.40;99.90;;;;;;5122256;27;20031;-70
2022/04/23 06:58:59;;;;;;;10.70;8.23;;;11.40;99.90;;;;;;5086284;28;20187;-70
2022/04/23 07:02:02;;;;;;;12.35;10.00;;;11.50;99.90;;;;;;5125258;27;20038;-70
2022/04/23 07:04:29;;;;;;;10.57;8.90;;;11.70;99.90;;;;;;5110847;27;20122;-70
2022/04/23 07:06:55;;;;;;;10.13;8.63;;;11.60;99.90;;;;;;5121743;27;20055;-70
2022/04/23 07:09:21;;;;;;;9.77;8.77;;;11.70;99.90;;;;;;5102134;28;20153;-70
2022/04/23 07:11:47;;;;;;;8.02;6.55;;;11.70;99.90;;;;;;5108623;27;20047;-70
2022/04/23 07:14:13;;;;;;;10.32;8.00;;;11.70;99.90;;;;;;5139229;27;20186;-69
2022/04/23 07:16:40;;;;;;;8.55;7.28;;;11.80;99.90;;;;;;5121843;27;20134;-69
2022/04/23 07:19:07;;;;;;;11.05;8.80;;;11.90;99.90;;;;;;5107963;28;20035;-70
2022/04/23 07:21:34;;;;;;;11.35;10.18;;;12.00;99.90;;;;;;5120402;27;20036;-69
2022/04/23 07:24:04;;;;;;;10.30;8.52;;;12.10;99.90;;;;;;5122364;27;20089;-70
2022/04/23 07:26:31;;;;;;;10.07;8.60;;;12.10;99.90;;;;;;5121999;28;20043;-71
2022/04/23 07:28:57;;;;;;;9.63;7.38;;;12.00;99.90;;;;;;5127374;27;20043;-70
2022/04/23 07:31:24;;;;;;;10.15;7.80;;;12.10;99.90;;;;;;5129046;27;20272;-70
2022/04/23 07:39:18;;;;;;;12.52;9.07;;;12.30;99.90;;;;;;5117721;28;20043;-69
2022/04/23 07:41:43;;;;;;;8.90;7.22;;;12.40;99.90;;;;;;5102299;28;20046;-68
2022/04/23 07:44:09;;;;;;;8.85;7.95;;;12.40;99.90;;;;;;5132911;28;20039;-70
2022/04/23 07:46:35;;;;;;;10.82;8.80;;;12.60;99.90;;;;;;5100234;28;20044;-69
2022/04/23 07:49:01;;;;;;;9.13;7.32;;;12.50;99.90;;;;;;5102979;28;20040;-70
2022/04/23 07:51:27;;;;;;;10.43;8.02;;;12.60;99.90;;;;;;5100098;28;20032;-69
2022/04/23 07:53:56;;;;;;;9.30;7.63;;;12.80;99.90;;;;;;5098343;28;20568;-70
2022/04/23 07:56:22;;;;;;;9.55;8.48;;;12.60;99.90;;;;;;5121314;27;20039;-69
2022/04/23 07:58:49;;;;;;;10.57;9.45;;;12.80;99.90;;;;;;5132961;27;20038;-70
2022/04/23 08:01:14;;;;;;;10.70;7.95;;;12.80;99.90;;;;;;5103358;27;20028;-70
2022/04/23 08:03:41;;;;;;;8.23;7.40;;;12.80;99.90;;;;;;5130453;27;20374;-70
2022/04/23 08:06:10;;;;;;;8.73;7.63;;;12.90;99.90;;;;;;5114588;27;20257;-70
2022/04/23 08:08:44;;;;;;;11.80;8.60;;;12.90;99.90;;;;;;5109055;27;20052;-69
2022/04/23 08:11:10;;;;;;;;;;;12.90;99.90;;;;;;5102807;28;20039;-69
2022/04/23 08:13:36;;;;;;;11.13;9.85;;;12.90;99.90;;;;;;5108877;27;19926;-71
2022/04/23 08:16:03;;;;;;;8.88;7.95;;;13.10;99.90;;;;;;5103946;28;20283;-70
2022/04/23 08:18:29;;;;;;;11.25;8.70;;;13.00;99.90;;;;;;5108702;27;20368;-70
2022/04/23 08:20:55;;;;;;;8.52;6.95;;;13.10;99.90;;;;;;5118034;27;20449;-70
2022/04/23 08:23:21;;;;;;;10.20;7.82;;;13.00;99.90;;;;;;5132337;27;20311;-71
2022/04/23 08:25:47;;;;;;;10.57;7.28;;;13.10;99.90;;;;;;5134572;27;20039;-69
2022/04/23 08:30:59;;;;;;;10.80;8.68;;;13.10;99.90;;;;;;5137618;27;20097;-71
2022/04/23 08:33:57;;;;;;;8.88;6.90;;;13.30;99.90;;;;;;5122923;27;20226;-70
2022/04/23 08:36:10;;;;;;;10.00;8.27;;;13.50;99.90;;;;;;5111992;27;20070;-70
2022/04/23 08:38:36;;;;;;;11.35;9.57;;;13.40;99.90;;;;;;5123438;27;20031;-70
2022/04/23 08:41:03;;;;;;;10.75;6.93;;;13.40;99.90;;;;;;5094200;28;20092;-69
2022/04/23 08:43:29;;;;;;;9.73;8.35;;;13.50;99.90;;;;;;5136013;27;20195;-69
2022/04/23 08:45:56;;;;;;;10.68;8.93;;;13.60;99.90;;;;;;5111408;27;20031;-69
2022/04/23 08:48:25;;;;;;;11.50;9.05;;;13.60;99.90;;;;;;5104327;28;20035;-69
2022/04/23 08:50:58;;;;;;;14.55;10.00;;;13.70;99.90;;;;;;5126017;27;20225;-69
2022/04/23 08:53:27;;;;;;;9.35;8.10;;;13.60;99.90;;;;;;5125624;27;20046;-69
2022/04/23 08:55:53;;;;;;;11.43;9.80;;;13.80;99.90;;;;;;5127713;27;20207;-70
2022/04/23 08:58:19;;;;;;;10.75;9.65;;;13.80;99.90;;;;;;5142841;27;20195;-70
2022/04/23 09:00:45;;;;;;;9.10;8.00;;;14.10;99.90;;;;;;5125898;27;20035;-69
2022/04/23 09:03:15;;;;;;;10.50;8.65;;;13.80;99.90;;;;;;5124340;27;20058;-70
2022/04/23 09:05:43;;;;;;;9.55;8.55;;;13.90;99.90;;;;;;5123449;27;20043;-69
2022/04/23 09:08:09;;;;;;;9.00;7.13;;;14.20;99.90;;;;;;5124118;27;20047;-70
2022/04/23 09:10:54;;;;;;;7.85;7.05;;;14.30;99.90;;;;;;5106450;27;20031;-69
2022/04/23 09:13:28;;;;;;;9.20;7.45;;;14.50;99.90;;;;;;5129935;27;20035;-70
2022/04/23 09:24:47;;;;;;;9.82;8.13;;;14.50;99.90;;;;;;5125656;27;20042;-68
2022/04/23 09:27:14;;;;;;;10.27;9.27;;;14.50;99.90;;;;;;5110203;27;20131;-69
2022/04/23 09:29:42;;;;;;;11.30;8.40;;;14.80;99.90;;;;;;5126237;27;20047;-69
2022/04/23 09:32:14;;;;;;;8.93;8.00;;;14.80;99.90;;;;;;5098725;27;20035;-70
2022/04/23 09:34:40;;;;;;;9.57;8.68;;;14.90;99.90;;;;;;5128575;27;20348;-69
2022/04/23 09:37:08;;;;;;;10.02;8.65;;;15.20;99.90;;;;;;5093646;27;20037;-71
2022/04/23 09:39:35;;;;;;;9.57;8.57;;;15.40;99.90;;;;;;5122575;27;20039;-69
2022/04/23 09:42:16;;;;;;;9.52;7.72;;;15.70;99.90;;;;;;5096127;27;20222;-70
2022/04/23 09:44:43;;;;;;;8.65;7.20;;;15.40;99.90;;;;;;5106175;27;20040;-69
2022/04/23 09:47:09;;;;;;;6.53;5.82;;;15.50;99.90;;;;;;5097083;28;20039;-69
2022/04/23 09:49:35;;;;;;;9.35;6.82;;;15.50;99.90;;;;;;5107534;27;20301;-69
2022/04/23 09:52:04;;;;;;;8.45;7.25;;;15.60;99.90;;;;;;5104927;27;20301;-69
2022/04/23 09:54:34;;;;;;;8.02;5.85;;;15.70;99.90;;;;;;5106277;27;20110;-67
2022/04/23 09:57:06;;;;;;;8.77;6.35;;;15.80;99.90;;;;;;5121586;27;20063;-70
2022/04/23 09:59:44;;;;;;;9.85;6.85;;;15.80;99.90;;;;;;5114517;27;20063;-70
2022/04/23 10:02:18;;;;;;;8.35;7.32;;;15.90;99.90;;;;;;5098115;28;20248;-68
2022/04/23 10:04:45;;;;;;;9.13;6.90;;;16.10;99.90;;;;;;5131026;27;20030;-69
2022/04/23 10:07:11;;;;;;;8.77;7.22;;;16.00;99.90;;;;;;5100651;28;20442;-70
2022/04/23 10:09:40;;;;;;;8.15;7.35;;;16.40;99.90;;;;;;5119085;27;20054;-70
2022/04/23 10:12:07;;;;;;;7.85;5.88;;;16.50;99.90;;;;;;5102044;27;20050;-70
2022/04/23 10:14:52;;;;;;;8.82;6.45;;;16.00;96.30;;;;;;5100499;28;20110;-70
2022/04/23 10:17:25;;;;;;;7.10;6.43;;;16.10;98.60;;;;;;5119431;27;20043;-70
2022/04/23 10:19:51;;;;;;;9.57;7.78;;;16.10;95.70;;;;;;5134965;27;20063;-70
2022/04/23 10:22:31;;;;;;;8.32;7.43;;;16.30;98.40;;;;;;5109474;28;20042;-70
2022/04/23 10:25:07;;;;;;;7.20;5.90;;;16.40;99.50;;;;;;5109896;28;20046;-70
2022/04/23 10:27:34;;;;;;;6.43;5.72;;;16.60;94.90;;;;;;5122041;27;20048;-68
2022/04/23 10:30:04;;;;;;;8.43;6.28;;;16.60;93.30;;;;;;5100074;27;20047;-70
2022/04/23 10:32:40;;;;;;;7.38;6.60;;;16.50;93.30;;;;;;5097798;28;20135;-69
2022/04/23 10:35:18;;;;;;;5.07;4.25;;;16.70;92.20;;;;;;5129999;27;20070;-70
2022/04/23 10:37:45;;;;;;;7.25;6.55;;;16.30;90.10;;;;;;5100112;28;20046;-70
2022/04/23 10:40:10;;;;;;;9.40;6.78;;;16.80;90.30;;;;;;5101301;28;20035;-69
2022/04/23 10:42:38;;;;;;;8.27;5.75;;;16.80;90.50;;;;;;5119903;27;20100;-69
2022/04/23 10:45:06;;;;;;;5.72;4.97;;;16.50;86.10;;;;;;5103841;27;20027;-70
2022/04/23 10:47:39;;;;;;;6.93;4.50;;;16.80;86.40;;;;;;5136539;27;20384;-70
2022/04/23 10:50:19;;;;;;;7.22;4.95;;;16.60;79.70;;;;;;5099483;28;20039;-69
2022/04/23 10:52:46;;;;;;;6.20;5.03;;;16.60;80.40;;;;;;5116107;28;20298;-70
2022/04/23 10:55:12;;;;;;;5.63;5.10;;;16.70;80.40;;;;;;5126927;27;20053;-70
2022/04/23 10:57:39;;;;;;;8.10;5.60;;;16.70;82.00;;;;;;5085780;28;20078;-70
2022/04/23 11:00:17;;;;;;;6.10;5.20;;;16.90;80.40;;;;;;5123512;27;20023;-70
2022/04/23 11:02:47;;;;;;;6.90;5.45;;;17.00;81.30;;;;;;5101890;28;20031;-70
2022/04/23 11:14:41;;;;;;;6.65;5.50;;;17.30;78.30;;;;;;5096242;28;20036;-70
2022/04/23 11:17:32;;;;;;;7.57;6.45;;;16.90;77.10;;;;;;5108326;28;20035;-70
2022/04/23 11:19:57;;;;;;;5.85;5.25;;;17.00;79.30;;;;;;5085404;28;20055;-72
2022/04/23 11:22:23;;;;;;;6.90;5.85;;;17.00;76.90;;;;;;5097999;28;20039;-69
2022/04/23 11:24:51;;;;;;;6.40;5.55;;;17.30;78.90;;;;;;5096846;28;20081;-70
2022/04/23 11:27:27;;;;;;;6.28;5.68;;;17.10;75.40;;;;;;5073405;28;20040;-70
2022/04/23 11:29:56;;;;;;;5.03;4.53;;;17.40;76.10;;;;;;5098863;28;20107;-70
2022/04/23 11:32:30;;;;;;;6.80;4.95;;;17.30;74.50;;;;;;5087455;28;20043;-70
2022/04/23 11:35:06;;;;;;;8.23;6.00;;;17.30;74.30;;;;;;5095071;28;20143;-71
2022/04/23 11:37:33;;;;;;;5.57;4.65;;;17.30;77.80;;;;;;5097557;28;20055;-70
2022/04/23 11:40:12;;;;;;;6.25;5.65;;;17.30;75.00;;;;;;5111462;28;20036;-70
2022/04/23 11:42:42;;;;;;;7.63;6.45;;;17.30;75.40;;;;;;5094748;28;20099;-70
2022/04/23 11:45:53;;;;;;;5.90;5.30;;;17.30;76.00;;;;;;5083494;28;20128;-71
2022/04/23 11:48:19;;;;;;;5.97;4.88;;;17.60;73.10;;;;;;5092750;28;20088;-70
2022/04/23 11:50:44;;;;;;;6.10;5.00;;;17.50;75.10;;;;;;5080890;28;20074;-71
2022/04/23 11:53:10;;;;;;;5.80;5.13;;;17.30;75.40;;;;;;5092089;28;20042;-71
2022/04/23 11:55:36;;;;;;;5.85;5.35;;;17.40;71.90;;;;;;5078734;28;20044;-71
2022/04/23 11:58:06;;;;;;;6.60;4.65;;;17.40;74.90;;;;;;5085750;28;20040;-71
2022/04/23 12:00:32;;;;;;;5.90;5.40;;;17.40;71.50;;;;;;5066834;28;20036;-71
2022/04/23 12:02:59;;;;;;;6.18;5.25;;;17.50;72.80;;;;;;5086522;28;20105;-72
2022/04/23 12:05:30;;;;;;;7.07;5.57;;;17.60;72.60;;;;;;5078619;28;20051;-71
2022/04/23 12:07:57;;;;;;;5.18;4.68;;;17.80;72.90;;;;;;5123657;28;20056;-71
2022/04/23 12:10:31;;;;;;;4.97;4.15;;;17.60;72.20;;;;;;5131028;28;20341;-71
2022/04/23 12:13:05;;;;;;;5.07;4.60;;;17.60;71.80;;;;;;5100931;28;20054;-71
2022/04/23 12:15:32;;;;;;;10.30;6.10;;;17.50;71.70;;;;;;5086547;28;20036;-70
2022/04/23 12:18:14;;;;;;;6.15;5.63;;;17.50;71.60;;;;;;5085874;28;20043;-70
2022/04/23 12:20:42;;;;;;;5.93;5.20;;;17.70;71.30;;;;;;5112753;28;20102;-69
2022/04/23 12:23:07;;;;;;;6.47;5.88;;;17.70;71.30;;;;;;5126142;28;20043;-70
2022/04/23 12:25:34;;;;;;;7.07;5.95;;;17.90;73.80;;;;;;5101682;28;20102;-70
2022/04/23 12:40:44;;;;;;;6.30;5.72;;;18.10;73.20;;;;;;5103152;28;21087;-70
2022/04/23 12:42:20;;;;;;;6.82;4.97;;;17.70;65.70;;;;;;5123492;28;20035;-70
2022/04/23 12:44:51;;;;;;;5.05;4.55;;;17.70;66.70;;;;;;5108845;27;20055;-69
2022/04/23 12:47:26;;;;;;;4.70;4.30;;;18.00;67.90;;;;;;5122382;27;20046;-70
2022/04/23 12:49:55;;;;;;;4.75;4.05;;;18.20;66.10;;;;;;5139221;27;20091;-70
2022/04/23 12:52:21;;;;;;;5.85;4.90;;;18.00;65.20;;;;;;5103074;28;20289;-70
2022/04/23 12:55:18;;;;;;;7.80;5.43;;;18.00;65.80;;;;;;5111145;27;20043;-70
2022/04/23 12:57:51;;;;;;;5.03;4.63;;;18.10;65.50;;;;;;5123243;27;20063;-70
2022/04/23 13:00:24;;;;;;;6.97;4.57;;;18.40;65.80;;;;;;5103548;27;20059;-70
2022/04/23 13:02:59;;;;;;;4.30;3.90;;;18.50;66.00;;;;;;5124941;27;20038;-70
2022/04/23 13:05:28;;;;;;;5.18;4.68;;;18.50;60.10;;;;;;5110801;28;20045;-70
2022/04/23 13:10:38;;;;;;;5.28;4.53;;;18.40;63.20;;;;;;5104645;27;20055;-70
2022/04/23 13:13:08;;;;;;;4.75;4.20;;;18.40;63.20;;;;;;5126609;27;20045;-70
2022/04/23 13:15:35;;;;;;;4.82;4.20;;;18.40;62.60;;;;;;5112840;27;20126;-71
2022/04/23 13:18:04;;;;;;;5.07;4.63;;;18.20;60.80;;;;;;5114618;27;20055;-70
2022/04/23 13:20:30;;;;;;;5.03;4.38;;;18.30;61.60;;;;;;5105761;27;20277;-71
2022/04/23 13:22:59;;;;;;;3.90;3.55;;;18.40;61.10;;;;;;5107104;27;20049;-71
2022/04/23 13:25:25;;;;;;;4.78;4.20;;;18.70;61.50;;;;;;5118118;27;20032;-70
2022/04/23 13:27:52;;;;;;;5.20;3.97;;;18.80;59.40;;;;;;5110415;28;20045;-71
2022/04/23 13:30:18;;;;;;;5.15;4.55;;;18.90;59.20;;;;;;5113883;27;20031;-70
2022/04/23 13:32:46;;;;;;;3.60;3.30;;;18.90;60.00;;;;;;5118314;27;20035;-70
2022/04/23 13:35:14;;;;;;;4.35;3.20;;;19.00;58.10;;;;;;5101828;28;20377;-70